createdAt,value
2018-12-15T00:00:32.172Z,17.87
2018-12-15T00:03:02.544Z,17.52
2018-12-15T00:05:32.811Z,19.07
2018-12-15T00:08:01.103Z,16.32
2018-12-15T00:10:29.356Z,19.02
2018-12-15T00:12:57.623Z,19.00
2018-12-15T00:15:42.734Z,13.08
2018-12-15T00:18:10.991Z,17.57
2018-12-15T00:20:39.799Z,14.58
2018-12-15T00:23:07.970Z,13.38
2018-12-15T00:25:36.248Z,19.23
2018-12-15T00:28:04.537Z,14.73
2018-12-15T00:30:32.808Z,15.13
2018-12-15T00:33:01.029Z,14.83
2018-12-15T00:35:29.371Z,14.65
2018-12-15T00:37:57.588Z,15.53
2018-12-15T00:40:25.866Z,15.70
2018-12-15T00:42:54.157Z,18.07
2018-12-15T00:45:22.721Z,16.17
2018-12-15T00:47:51.148Z,16.73
2018-12-15T00:50:19.435Z,16.32
2018-12-15T00:52:47.630Z,15.25
2018-12-15T00:55:15.946Z,18.82
2018-12-15T00:57:44.240Z,18.07
2018-12-15T01:00:12.829Z,16.35
2018-12-15T01:02:41.173Z,18.23
2018-12-15T01:05:09.519Z,15.55
2018-12-15T01:07:37.785Z,16.10
2018-12-15T01:10:06.082Z,14.03
2018-12-15T01:12:34.289Z,16.75
2018-12-15T01:15:02.719Z,14.18
2018-12-15T01:17:30.879Z,16.77
2018-12-15T01:19:59.163Z,12.70
2018-12-15T01:22:27.445Z,13.03
2018-12-15T01:24:55.722Z,13.50
2018-12-15T01:27:23.952Z,12.05
2018-12-15T01:29:52.211Z,17.50
2018-12-15T01:32:20.495Z,14.45
2018-12-15T01:34:49.729Z,13.75
2018-12-15T01:37:17.915Z,12.95
2018-12-15T01:39:46.178Z,14.15
2018-12-15T01:42:14.431Z,12.70
2018-12-15T01:44:42.687Z,13.20
2018-12-15T01:47:10.964Z,14.07
2018-12-15T01:49:39.267Z,12.40
2018-12-15T01:52:07.560Z,12.98
2018-12-15T01:54:35.773Z,13.65
2018-12-15T01:57:04.123Z,13.45
2018-12-15T01:59:32.367Z,14.30
2018-12-15T02:02:00.738Z,12.85
2018-12-15T02:04:30.145Z,11.75
2018-12-15T02:06:58.487Z,12.93
2018-12-15T02:09:26.682Z,12.93
2018-12-15T02:11:54.991Z,15.08
2018-12-15T02:14:23.219Z,14.93
2018-12-15T02:16:52.332Z,12.47
2018-12-15T02:19:20.619Z,11.60
2018-12-15T02:21:48.934Z,12.18
2018-12-15T02:24:17.256Z,12.18
2018-12-15T02:26:45.443Z,12.53
2018-12-15T02:29:15.791Z,11.78
2018-12-15T02:31:44.564Z,11.38
2018-12-15T02:34:12.741Z,13.98
2018-12-15T02:36:40.994Z,11.88
2018-12-15T02:39:10.512Z,12.20
2018-12-15T02:41:47.028Z,12.07
2018-12-15T02:44:09.948Z,11.85
2018-12-15T02:46:38.188Z,12.55
2018-12-15T02:49:06.474Z,11.00
2018-12-15T02:51:34.766Z,9.88
2018-12-15T02:54:03.028Z,11.30
2018-12-15T02:56:31.331Z,10.13
2018-12-15T02:58:59.598Z,11.95
2018-12-15T03:01:27.826Z,12.15
2018-12-15T03:03:56.126Z,10.20
2018-12-15T03:06:24.437Z,12.23
2018-12-15T03:08:52.737Z,11.30
2018-12-15T03:11:21.421Z,13.00
2018-12-15T03:13:49.643Z,11.05
2018-12-15T03:16:17.926Z,13.83
2018-12-15T03:18:46.161Z,12.25
2018-12-15T03:21:15.843Z,11.93
2018-12-15T03:23:44.014Z,12.80
2018-12-15T03:26:12.237Z,14.33
2018-12-15T03:28:40.515Z,11.30
2018-12-15T03:31:08.841Z,13.30
2018-12-15T03:33:37.051Z,13.88
2018-12-15T03:36:05.363Z,11.43
2018-12-15T03:38:34.450Z,12.07
2018-12-15T03:41:02.754Z,11.48
2018-12-15T03:43:30.995Z,14.18
2018-12-15T03:45:59.310Z,10.98
2018-12-15T03:48:28.786Z,12.60
2018-12-15T03:50:57.052Z,11.00
2018-12-15T03:53:25.336Z,13.75
2018-12-15T03:55:53.597Z,10.13
2018-12-15T03:58:22.279Z,10.45
2018-12-15T04:00:50.555Z,10.05
2018-12-15T04:03:18.851Z,9.30
2018-12-15T04:05:47.116Z,9.95
2018-12-15T04:15:12.493Z,11.08
2018-12-15T04:17:40.644Z,10.58
2018-12-15T04:20:08.929Z,11.78
2018-12-15T04:22:37.223Z,12.10
2018-12-15T04:25:05.509Z,12.68
2018-12-15T04:27:34.994Z,13.10
2018-12-15T04:30:06.775Z,12.35
2018-12-15T04:32:35.679Z,12.10
2018-12-15T04:35:05.196Z,11.60
2018-12-15T04:37:33.411Z,13.10
2018-12-15T04:40:01.705Z,11.43
2018-12-15T04:42:31.211Z,12.10
2018-12-15T04:44:59.455Z,11.95
2018-12-15T04:47:27.901Z,14.40
2018-12-15T04:49:57.254Z,16.95
2018-12-15T04:52:25.503Z,13.40
2018-12-15T04:54:53.803Z,13.22
2018-12-15T04:57:22.095Z,17.80
2018-12-15T04:59:50.383Z,14.47
2018-12-15T05:02:18.647Z,14.85
2018-12-15T05:04:47.271Z,17.62
2018-12-15T05:07:15.595Z,15.40
2018-12-15T05:09:43.887Z,13.88
2018-12-15T05:12:13.189Z,13.78
2018-12-15T05:14:41.633Z,15.20
2018-12-15T05:17:09.957Z,13.95
2018-12-15T05:19:38.196Z,13.35
2018-12-15T05:22:09.949Z,16.07
2018-12-15T05:24:38.596Z,14.75
2018-12-15T05:27:08.612Z,13.62
2018-12-15T05:29:37.041Z,13.30
2018-12-15T05:32:05.337Z,16.65
2018-12-15T05:34:33.596Z,19.95
2018-12-15T05:37:01.893Z,23.73
2018-12-15T05:39:30.139Z,19.10
2018-12-15T05:41:58.466Z,17.20
2018-12-15T05:44:26.716Z,13.28
2018-12-15T05:46:54.978Z,16.23
2018-12-15T05:49:23.252Z,18.32
2018-12-15T05:51:52.375Z,14.50
2018-12-15T05:54:20.651Z,15.78
2018-12-15T05:59:44.219Z,12.15
2018-12-15T06:02:15.124Z,12.28
2018-12-15T06:04:43.637Z,14.25
2018-12-15T06:07:11.946Z,16.73
2018-12-15T06:09:40.224Z,14.98
2018-12-15T06:12:11.755Z,16.48
2018-12-15T06:14:40.043Z,14.60
2018-12-15T06:17:08.286Z,16.40
2018-12-15T06:19:36.575Z,14.78
2018-12-15T06:22:04.900Z,16.60
2018-12-15T06:24:33.125Z,15.72
2018-12-15T06:27:02.250Z,17.07
2018-12-15T06:29:30.480Z,16.90
2018-12-15T06:31:58.766Z,16.85
2018-12-15T06:34:27.063Z,17.17
2018-12-15T06:36:56.540Z,17.57
2018-12-15T06:39:24.873Z,20.20
2018-12-15T06:41:53.088Z,21.27
2018-12-15T06:44:21.375Z,18.73
2018-12-15T06:46:49.603Z,18.25
2018-12-15T06:49:17.938Z,20.75
2018-12-15T06:51:46.975Z,22.10
2018-12-15T06:54:15.312Z,23.45
2018-12-15T06:56:43.573Z,22.40
2018-12-15T06:59:11.831Z,20.85
2018-12-15T07:01:40.106Z,22.98
2018-12-15T07:04:08.415Z,24.12
2018-12-15T07:06:36.640Z,24.18
2018-12-15T07:09:06.712Z,23.15
2018-12-15T07:11:36.094Z,23.35
2018-12-15T07:14:04.387Z,17.50
2018-12-15T07:16:36.387Z,18.10
2018-12-15T07:19:04.602Z,17.02
2018-12-15T07:21:32.868Z,16.67
2018-12-15T07:24:01.175Z,18.12
2018-12-15T07:26:29.407Z,21.77
2018-12-15T07:28:57.700Z,19.85
2018-12-15T07:31:26.006Z,20.70
2018-12-15T07:33:54.265Z,23.32
2018-12-15T07:36:22.543Z,18.02
2018-12-15T07:38:50.863Z,20.72
2018-12-15T07:41:19.142Z,19.73
2018-12-15T07:43:47.403Z,21.27
2018-12-15T07:46:15.701Z,20.48
2018-12-15T07:48:43.976Z,29.67
2018-12-15T07:51:12.683Z,23.35
2018-12-15T07:53:40.899Z,29.65
2018-12-15T07:56:09.167Z,24.52
2018-12-15T07:58:37.320Z,27.07
2018-12-15T08:01:05.884Z,25.12
2018-12-15T08:03:34.013Z,24.98
2018-12-15T08:06:02.354Z,23.35
2018-12-15T08:08:30.566Z,22.17
2018-12-15T08:11:04.401Z,24.00
2018-12-15T08:13:33.691Z,23.42
2018-12-15T08:16:01.973Z,24.92
2018-12-15T08:18:30.179Z,23.60
2018-12-15T08:20:58.568Z,23.62
2018-12-15T08:23:26.787Z,18.90
2018-12-15T08:28:49.964Z,22.50
2018-12-15T08:31:18.037Z,22.58
2018-12-15T08:33:46.567Z,22.30
2018-12-15T08:36:15.041Z,21.20
2018-12-15T08:38:43.455Z,19.87
2018-12-15T08:41:11.723Z,19.45
2018-12-15T08:43:40.202Z,21.97
2018-12-15T08:46:11.933Z,20.75
2018-12-15T08:48:42.287Z,22.10
2018-12-15T08:51:11.141Z,21.02
2018-12-15T08:53:39.730Z,23.12
2018-12-15T08:56:10.038Z,30.70
2018-12-15T08:58:39.468Z,29.90
2018-12-15T09:01:07.813Z,27.42
2018-12-15T09:03:36.055Z,26.52
2018-12-15T09:06:04.335Z,29.60
2018-12-15T09:08:33.829Z,23.18
2018-12-15T09:11:02.135Z,26.05
2018-12-15T09:13:30.346Z,26.35
2018-12-15T09:15:58.628Z,28.40
2018-12-15T09:18:28.154Z,28.30
2018-12-15T09:20:56.474Z,24.63
2018-12-15T09:23:24.744Z,26.00
2018-12-15T09:25:52.968Z,24.27
2018-12-15T09:28:21.321Z,24.23
2018-12-15T09:30:49.552Z,22.55
2018-12-15T09:33:17.814Z,20.92
2018-12-15T09:35:46.147Z,20.57
2018-12-15T09:38:14.339Z,16.60
2018-12-15T09:40:42.647Z,14.43
2018-12-15T09:43:10.898Z,15.60
2018-12-15T09:45:39.188Z,18.30
2018-12-15T09:48:07.613Z,21.02
2018-12-15T09:50:35.748Z,19.27
2018-12-15T09:53:05.300Z,15.38
2018-12-15T09:55:33.568Z,15.48
2018-12-15T09:58:01.844Z,15.05
2018-12-15T10:00:30.098Z,16.93
2018-12-15T10:02:59.594Z,16.50
2018-12-15T10:05:27.836Z,17.42
2018-12-15T10:07:56.109Z,17.67
2018-12-15T10:10:24.413Z,19.52
2018-12-15T10:12:52.671Z,14.45
2018-12-15T10:15:21.034Z,16.60
2018-12-15T10:17:49.218Z,16.82
2018-12-15T10:20:17.498Z,14.95
2018-12-15T10:22:46.162Z,18.42
2018-12-15T10:25:17.728Z,16.97
2018-12-15T10:27:45.799Z,16.30
2018-12-15T10:30:19.687Z,19.40
2018-12-15T10:32:52.386Z,18.73
2018-12-15T10:35:21.564Z,18.25
2018-12-15T10:37:49.796Z,17.17
2018-12-15T10:40:18.123Z,14.73
2018-12-15T10:42:46.305Z,15.28
2018-12-15T10:45:14.722Z,14.80
2018-12-15T10:47:42.898Z,14.58
2018-12-15T10:50:11.555Z,15.70
2018-12-15T10:52:39.859Z,16.12
2018-12-15T10:55:09.137Z,13.75
2018-12-15T10:57:37.738Z,12.55
2018-12-15T11:00:13.208Z,14.78
2018-12-15T11:02:42.795Z,16.07
2018-12-15T11:05:12.679Z,22.80
2018-12-15T11:07:41.404Z,17.15
2018-12-15T11:10:09.651Z,14.40
2018-12-15T11:12:37.901Z,16.97
2018-12-15T11:15:07.501Z,16.05
2018-12-15T11:17:37.732Z,15.05
2018-12-15T11:20:07.063Z,16.97
2018-12-15T11:22:35.544Z,14.75
2018-12-15T11:25:04.095Z,18.27
2018-12-15T11:27:32.209Z,17.70
2018-12-15T11:30:00.372Z,23.02
2018-12-15T11:32:28.648Z,20.23
2018-12-15T11:34:56.932Z,22.17
2018-12-15T11:37:25.169Z,25.23
2018-12-15T11:39:53.457Z,24.57
2018-12-15T11:42:21.756Z,22.55
2018-12-15T11:44:51.283Z,24.80
2018-12-15T11:47:19.516Z,27.85
2018-12-15T11:49:47.806Z,28.98
2018-12-15T11:52:16.088Z,30.60
2018-12-15T11:54:44.367Z,25.20
2018-12-15T11:57:13.910Z,24.65
2018-12-15T11:59:42.487Z,30.48
2018-12-15T12:02:10.873Z,25.50
2018-12-15T12:04:39.722Z,27.02
2018-12-15T12:07:09.450Z,23.40
2018-12-15T12:09:38.908Z,23.15
2018-12-15T12:12:08.002Z,23.73
2018-12-15T12:14:36.331Z,18.20
2018-12-15T12:17:05.002Z,19.15
2018-12-15T12:19:33.248Z,20.95
2018-12-15T12:22:01.575Z,21.15
2018-12-15T12:24:31.024Z,20.15
2018-12-15T12:27:01.388Z,22.17
2018-12-15T12:29:30.854Z,22.60
2018-12-15T12:31:59.175Z,24.32
2018-12-15T12:34:28.647Z,25.80
2018-12-15T12:36:56.909Z,31.35
2018-12-15T12:39:25.290Z,31.40
2018-12-15T12:41:55.518Z,21.75
2018-12-15T12:44:25.867Z,23.55
2018-12-15T12:46:54.143Z,28.98
2018-12-15T12:49:23.632Z,25.30
2018-12-15T12:51:51.862Z,24.92
2018-12-15T12:54:20.196Z,24.55
2018-12-15T12:56:48.455Z,26.73
2018-12-15T12:59:16.779Z,26.15
2018-12-15T13:01:46.256Z,25.27
2018-12-15T13:04:14.496Z,27.30
2018-12-15T13:06:42.803Z,34.23
2018-12-15T13:09:11.087Z,31.70
2018-12-15T13:11:39.345Z,27.35
2018-12-15T13:14:07.603Z,50.98
2018-12-15T13:16:35.912Z,42.15
2018-12-15T13:19:04.224Z,35.60
2018-12-15T13:21:32.441Z,25.12
2018-12-15T13:24:00.747Z,23.42
2018-12-15T13:26:28.987Z,25.95
2018-12-15T13:28:57.283Z,24.55
2018-12-15T13:31:25.552Z,24.27
2018-12-15T13:33:53.856Z,21.15
2018-12-15T13:36:22.104Z,20.72
2018-12-15T13:38:50.360Z,22.35
2018-12-15T13:41:18.786Z,25.82
2018-12-15T13:43:46.942Z,24.98
2018-12-15T13:46:15.215Z,23.83
2018-12-15T13:48:43.494Z,23.62
2018-12-15T13:51:11.799Z,22.15
2018-12-15T13:53:41.329Z,20.65
2018-12-15T13:56:13.228Z,24.00
2018-12-15T13:58:41.487Z,31.00
2018-12-15T14:01:09.819Z,23.90
2018-12-15T14:03:38.029Z,21.97
2018-12-15T14:06:06.310Z,24.55
2018-12-15T14:08:35.439Z,23.73
2018-12-15T14:11:03.746Z,24.60
2018-12-15T14:13:31.988Z,24.50
2018-12-15T14:16:00.279Z,25.77
2018-12-15T14:18:28.581Z,27.25
2018-12-15T14:20:58.031Z,26.20
2018-12-15T14:23:26.310Z,29.85
2018-12-15T14:25:54.571Z,31.97
2018-12-15T14:28:22.700Z,31.25
2018-12-15T14:30:51.101Z,27.13
2018-12-15T14:33:19.422Z,29.00
2018-12-15T14:35:47.667Z,23.47
2018-12-15T14:38:15.992Z,26.07
2018-12-15T14:40:44.283Z,21.70
2018-12-15T14:43:12.518Z,19.02
2018-12-15T14:45:40.789Z,19.62
2018-12-15T14:48:09.051Z,23.02
2018-12-15T14:50:37.307Z,20.23
2018-12-15T14:53:05.660Z,24.05
2018-12-15T14:55:33.923Z,24.52
2018-12-15T14:58:02.203Z,22.75
2018-12-15T15:00:31.757Z,22.52
2018-12-15T15:03:00.377Z,23.35
2018-12-15T15:05:28.651Z,22.25
2018-12-15T15:07:56.952Z,25.37
2018-12-15T15:10:25.191Z,27.17
2018-12-15T15:12:53.460Z,29.95
2018-12-15T15:15:21.772Z,25.40
2018-12-15T15:17:51.282Z,22.10
2018-12-15T15:20:21.397Z,24.25
2018-12-15T15:22:49.900Z,24.02
2018-12-15T15:25:18.927Z,22.48
2018-12-15T15:27:47.055Z,25.90
2018-12-15T15:30:15.119Z,27.35
2018-12-15T15:32:43.730Z,30.48
2018-12-15T15:35:12.091Z,29.42
2018-12-15T15:37:40.344Z,25.32
2018-12-15T15:40:09.607Z,27.50
2018-12-15T15:42:38.111Z,31.33
2018-12-15T15:45:06.831Z,24.60
2018-12-15T15:47:35.108Z,25.08
2018-12-15T15:50:03.894Z,24.30
2018-12-15T15:52:32.047Z,25.52
2018-12-15T15:55:00.312Z,25.40
2018-12-15T15:57:28.603Z,25.55
2018-12-15T15:59:56.827Z,29.72
2018-12-15T16:02:25.113Z,28.52
2018-12-15T16:04:53.426Z,25.30
2018-12-15T16:07:21.675Z,38.15
2018-12-15T16:09:49.987Z,37.28
2018-12-15T16:12:18.195Z,32.05
2018-12-15T16:14:46.315Z,32.60
2018-12-15T16:17:14.431Z,32.95
2018-12-15T16:19:44.297Z,32.93
2018-12-15T16:22:12.638Z,29.50
2018-12-15T16:24:42.099Z,27.50
2018-12-15T16:27:11.552Z,31.48
2018-12-15T16:29:41.111Z,31.62
2018-12-15T16:32:09.380Z,28.35
2018-12-15T16:34:37.644Z,31.40
2018-12-15T16:37:05.979Z,30.08
2018-12-15T16:39:34.170Z,27.15
2018-12-15T16:42:02.300Z,30.90
2018-12-15T16:44:30.763Z,43.40
2018-12-15T16:47:00.304Z,30.17
2018-12-15T16:49:28.566Z,28.47
2018-12-15T16:51:56.802Z,29.85
2018-12-15T16:54:25.098Z,28.83
2018-12-15T16:56:53.393Z,29.45
2018-12-15T16:59:21.667Z,34.88
2018-12-15T17:01:49.904Z,31.35
2018-12-15T17:04:18.049Z,31.35
2018-12-15T17:06:46.439Z,34.60
2018-12-15T17:09:15.972Z,31.52
2018-12-15T17:11:44.251Z,35.75
2018-12-15T17:14:12.525Z,49.33
2018-12-15T17:16:40.679Z,44.58
2018-12-15T17:19:09.445Z,55.67
2018-12-15T17:21:37.808Z,49.25
2018-12-15T17:24:06.042Z,32.88
2018-12-15T17:26:34.323Z,25.52
2018-12-15T17:29:02.470Z,24.82
2018-12-15T17:31:32.925Z,30.88
2018-12-15T17:34:02.469Z,23.50
2018-12-15T17:36:32.313Z,29.48
2018-12-15T17:39:00.762Z,28.17
2018-12-15T17:41:28.907Z,24.77
2018-12-15T17:43:57.190Z,22.95
2018-12-15T17:46:25.403Z,25.20
2018-12-15T17:48:53.710Z,28.05
2018-12-15T17:51:22.830Z,25.10
2018-12-15T17:53:52.332Z,25.92
2018-12-15T17:56:20.601Z,27.45
2018-12-15T17:58:48.867Z,43.50
2018-12-15T18:01:17.153Z,33.38
2018-12-15T18:03:45.799Z,24.85
2018-12-15T18:06:14.932Z,30.08
2018-12-15T18:08:43.179Z,37.20
2018-12-15T18:11:11.473Z,28.00
2018-12-15T18:13:40.952Z,33.53
2018-12-15T18:16:09.242Z,35.03
2018-12-15T18:25:32.455Z,31.00
2018-12-15T18:28:00.712Z,37.20
2018-12-15T18:30:28.972Z,29.55
2018-12-15T18:32:58.107Z,29.55
2018-12-15T18:35:26.399Z,33.78
2018-12-15T18:37:54.618Z,27.90
2018-12-15T18:40:23.379Z,31.40
2018-12-15T18:42:51.670Z,27.20
2018-12-15T18:45:19.864Z,43.55
2018-12-15T18:47:48.160Z,32.15
2018-12-15T18:50:16.463Z,27.90
2018-12-15T18:52:44.613Z,26.30
2018-12-15T18:55:12.773Z,28.62
2018-12-15T18:57:42.884Z,23.10
2018-12-15T19:00:11.907Z,21.82
2018-12-15T19:02:42.299Z,24.80
2018-12-15T19:05:10.636Z,22.22
2018-12-15T19:07:40.932Z,22.07
2018-12-15T19:10:09.494Z,23.50
2018-12-15T19:12:37.897Z,23.83
2018-12-15T19:15:07.397Z,22.80
2018-12-15T19:17:35.676Z,26.75
2018-12-15T19:20:04.377Z,27.05
2018-12-15T19:22:32.596Z,25.50
2018-12-15T19:25:00.879Z,22.70
2018-12-15T19:27:29.201Z,23.57
2018-12-15T19:29:57.435Z,33.67
2018-12-15T19:32:27.799Z,25.90
2018-12-15T19:34:57.361Z,25.70
2018-12-15T19:37:25.709Z,40.10
2018-12-15T19:39:55.241Z,21.93
2018-12-15T19:42:23.800Z,26.23
2018-12-15T19:44:51.923Z,20.77
2018-12-15T19:47:19.983Z,27.60
2018-12-15T19:49:48.143Z,21.40
2018-12-15T19:52:16.427Z,23.22
2018-12-15T19:54:46.795Z,28.15
2018-12-15T19:57:15.027Z,23.38
2018-12-15T19:59:43.327Z,29.50
2018-12-15T20:02:11.566Z,20.10
2018-12-15T20:04:39.952Z,25.97
2018-12-15T20:07:08.175Z,25.85
2018-12-15T20:09:37.267Z,21.70
2018-12-15T20:12:05.529Z,19.60
2018-12-15T20:14:33.801Z,17.73
2018-12-15T20:17:02.083Z,21.62
2018-12-15T20:19:30.318Z,23.83
2018-12-15T20:21:59.604Z,20.25
2018-12-15T20:24:27.746Z,23.15
2018-12-15T20:26:57.253Z,19.27
2018-12-15T20:29:25.696Z,17.62
2018-12-15T20:31:54.194Z,17.62
2018-12-15T20:34:22.431Z,21.73
2018-12-15T20:36:54.274Z,19.57
2018-12-15T20:39:22.672Z,18.10
2018-12-15T20:41:51.779Z,20.92
2018-12-15T20:44:21.288Z,21.05
2018-12-15T20:46:49.547Z,20.85
2018-12-15T20:49:17.642Z,18.05
2018-12-15T20:51:46.144Z,18.57
2018-12-15T20:54:19.272Z,17.40
2018-12-15T20:56:51.287Z,19.50
2018-12-15T20:59:19.520Z,20.48
2018-12-15T21:01:47.920Z,21.85
2018-12-15T21:04:16.128Z,18.65
2018-12-15T21:06:44.377Z,19.37
2018-12-15T21:09:12.667Z,21.37
2018-12-15T21:11:41.773Z,19.23
2018-12-15T21:14:11.255Z,18.25
2018-12-15T21:16:39.542Z,21.87
2018-12-15T21:19:09.054Z,19.90
2018-12-15T21:21:37.282Z,18.23
2018-12-15T21:24:05.335Z,16.45
2018-12-15T21:26:33.504Z,15.60
2018-12-15T21:29:01.607Z,21.00
2018-12-15T21:31:30.001Z,18.98
2018-12-15T21:33:58.308Z,16.00
2018-12-15T21:36:26.599Z,16.77
2018-12-15T21:38:54.696Z,18.73
2018-12-15T21:41:23.105Z,17.12
2018-12-15T21:43:51.399Z,16.70
2018-12-15T21:46:19.663Z,17.30
2018-12-15T21:48:47.903Z,15.83
2018-12-15T21:51:18.270Z,14.73
2018-12-15T21:53:46.545Z,16.77
2018-12-15T21:56:14.811Z,17.15
2018-12-15T21:58:43.116Z,18.52
2018-12-15T22:01:11.373Z,14.78
2018-12-15T22:03:39.620Z,15.03
2018-12-15T22:06:07.940Z,15.90
2018-12-15T22:08:36.204Z,17.02
2018-12-15T22:11:04.479Z,15.43
2018-12-15T22:13:49.544Z,15.45
2018-12-15T22:16:17.803Z,18.23
2018-12-15T22:18:46.108Z,22.52
2018-12-15T22:21:14.355Z,17.40
2018-12-15T22:23:43.515Z,15.53
2018-12-15T22:26:11.732Z,16.73
2018-12-15T22:28:39.986Z,17.90
2018-12-15T22:31:08.286Z,16.85
2018-12-15T22:33:36.583Z,17.98
2018-12-15T22:36:06.141Z,17.80
2018-12-15T22:38:34.367Z,18.07
2018-12-15T22:41:02.635Z,18.37
2018-12-15T22:43:30.884Z,16.62
2018-12-15T22:45:59.217Z,19.20
2018-12-15T22:48:27.866Z,20.75
2018-12-15T22:50:56.119Z,21.48
2018-12-15T22:53:24.411Z,25.90
2018-12-15T22:55:52.710Z,21.45
2018-12-15T22:58:20.867Z,17.32
2018-12-15T23:00:54.687Z,17.82
2018-12-15T23:03:24.866Z,17.07
2018-12-15T23:05:54.402Z,22.22
2018-12-15T23:08:22.656Z,16.60
2018-12-15T23:10:50.967Z,19.00
2018-12-15T23:13:19.049Z,16.90
2018-12-15T23:15:48.308Z,19.98
2018-12-15T23:18:16.628Z,13.48
2018-12-15T23:20:44.844Z,14.18
2018-12-15T23:23:14.347Z,15.03
2018-12-15T23:25:42.455Z,14.58
2018-12-15T23:28:10.940Z,17.42
2018-12-15T23:30:45.063Z,14.60
2018-12-15T23:33:13.628Z,16.95
2018-12-15T23:35:41.883Z,13.18
2018-12-15T23:38:09.988Z,13.80
2018-12-15T23:40:39.107Z,13.53
2018-12-15T23:43:07.554Z,12.10
2018-12-15T23:45:35.861Z,11.95
2018-12-15T23:48:04.246Z,13.98
2018-12-15T23:50:32.383Z,13.08
2018-12-15T23:53:00.680Z,13.03
2018-12-15T23:55:28.949Z,12.90
2018-12-15T23:57:58.203Z,13.30
